Time;durP1;ratioP1;P1;durP2;ratioP2;P2;SDS_P1;SDS_P2;PMS_P1;PMS_P2;Temp;Humidity;BMP_temperature;BMP_pressure;BME280_temperature;BME280_humidity;BME280_pressure;Samples;Min_cycle;Max_cycle;Signal;HPM_P1;HPM_P2
2021/05/02 00:01:05;;;;;;;14.50;12.02;;;8.20;99.90;;;;;;4995640;28;20054;-78
2021/05/02 00:03:31;;;;;;;19.50;12.23;;;8.10;99.90;;;;;;4997309;28;20046;-80
2021/05/02 00:05:57;;;;;;;17.17;12.90;;;8.10;99.90;;;;;;4995482;28;20149;-80
2021/05/02 00:08:24;;;;;;;17.45;12.68;;;8.00;99.90;;;;;;4994722;28;20514;-79
2021/05/02 00:10:50;;;;;;;18.17;14.20;;;7.90;99.90;;;;;;4995579;28;20115;-79
2021/05/02 00:13:18;;;;;;;19.35;13.38;;;7.80;99.90;;;;;;4995457;28;20117;-78
2021/05/02 00:15:44;;;;;;;17.38;13.80;;;7.80;99.90;;;;;;4995248;28;20146;-79
2021/05/02 00:18:11;;;;;;;17.27;13.60;;;7.70;99.90;;;;;;4995086;28;20128;-78
2021/05/02 00:20:38;;;;;;;21.00;14.43;;;7.70;99.90;;;;;;4995005;28;20053;-78
2021/05/02 00:23:05;;;;;;;20.33;15.13;;;7.70;99.90;;;;;;4995139;28;20528;-78
2021/05/02 00:25:33;;;;;;;18.58;14.18;;;7.70;99.90;;;;;;4995396;28;20137;-76
2021/05/02 00:28:00;;;;;;;19.60;15.45;;;7.60;99.90;;;;;;4994802;28;20097;-78
2021/05/02 00:30:28;;;;;;;21.30;14.57;;;7.60;99.90;;;;;;4995355;28;20050;-78
2021/05/02 00:32:56;;;;;;;20.63;15.50;;;7.60;99.90;;;;;;4995441;28;20133;-78
2021/05/02 00:35:24;;;;;;;19.52;15.55;;;7.50;99.90;;;;;;4993512;28;20163;-78
2021/05/02 00:37:51;;;;;;;20.33;15.30;;;7.50;99.90;;;;;;4994863;28;20793;-78
2021/05/02 00:40:19;;;;;;;21.58;15.65;;;7.50;99.90;;;;;;4995261;28;20518;-78
2021/05/02 00:42:48;;;;;;;21.45;15.93;;;7.50;99.90;;;;;;4994903;28;20096;-78
2021/05/02 00:45:23;;;;;;;24.90;17.25;;;7.50;99.90;;;;;;4994777;28;20511;-78
2021/05/02 00:47:54;;;;;;;23.13;16.30;;;7.50;99.90;;;;;;4995075;28;20057;-78
2021/05/02 00:50:28;;;;;;;23.23;16.77;;;7.40;99.90;;;;;;4995627;28;20061;-78
2021/05/02 00:53:34;;;;;;;20.70;16.30;;;7.50;99.90;;;;;;4995525;28;20577;-79
2021/05/02 00:56:10;;;;;;;23.63;17.23;;;7.40;99.90;;;;;;4994606;28;20448;-79
2021/05/02 00:58:49;;;;;;;22.80;15.73;;;7.30;99.90;;;;;;4993354;28;20057;-77
2021/05/02 01:01:20;;;;;;;25.73;17.15;;;7.30;99.90;;;;;;4994370;28;20080;-79
2021/05/02 01:03:49;;;;;;;24.85;17.27;;;7.20;99.90;;;;;;4994610;28;20050;-80
2021/05/02 01:06:21;;;;;;;24.13;17.45;;;7.20;99.90;;;;;;4994645;28;20050;-78
2021/05/02 01:08:50;;;;;;;23.00;17.27;;;7.20;99.90;;;;;;4994794;28;20078;-79
2021/05/02 01:11:17;;;;;;;24.25;18.30;;;7.20;99.90;;;;;;4995070;28;20097;-79
2021/05/02 01:13:50;;;;;;;24.30;17.48;;;7.20;99.90;;;;;;4995324;28;20088;-78
2021/05/02 01:16:19;;;;;;;21.17;16.63;;;7.10;99.90;;;;;;4994681;28;20152;-78
2021/05/02 01:18:47;;;;;;;22.95;16.90;;;7.00;99.90;;;;;;4994702;28;20448;-78
2021/05/02 01:21:14;;;;;;;21.33;16.85;;;6.90;99.90;;;;;;4994328;28;20064;-79
2021/05/02 01:23:42;;;;;;;21.02;16.25;;;6.90;99.90;;;;;;4994507;28;20054;-79
2021/05/02 01:26:08;;;;;;;22.75;16.13;;;6.80;99.90;;;;;;4994460;28;20054;-79
2021/05/02 01:28:37;;;;;;;29.77;17.05;;;6.70;99.90;;;;;;4993831;28;20046;-78
2021/05/02 01:31:04;;;;;;;25.60;17.50;;;6.70;99.90;;;;;;4994821;28;20133;-78
2021/05/02 01:33:31;;;;;;;26.33;18.65;;;6.60;99.90;;;;;;4994657;28;20061;-79
2021/05/02 01:35:57;;;;;;;25.65;16.98;;;6.60;99.90;;;;;;4993781;28;20133;-79
2021/05/02 01:38:25;;;;;;;27.52;17.25;;;6.50;99.90;;;;;;4993715;28;20447;-79
2021/05/02 01:40:54;;;;;;;23.08;17.45;;;6.50;99.90;;;;;;4993803;28;20427;-79
2021/05/02 01:43:21;;;;;;;25.90;17.58;;;6.60;99.90;;;;;;4994108;28;20046;-78
2021/05/02 01:45:47;;;;;;;27.40;18.30;;;6.60;99.90;;;;;;4992937;28;20157;-78
2021/05/02 01:48:16;;;;;;;25.88;17.65;;;6.60;99.90;;;;;;4992733;28;20150;-78
2021/05/02 01:50:46;;;;;;;27.10;19.02;;;6.70;99.90;;;;;;4993003;28;20458;-79
2021/05/02 01:53:14;;;;;;;27.00;18.70;;;6.70;99.90;;;;;;4993270;28;20241;-79
2021/05/02 01:55:40;;;;;;;27.00;18.58;;;6.80;99.90;;;;;;4994366;28;20142;-78
2021/05/02 01:58:09;;;;;;;25.27;18.77;;;6.80;99.90;;;;;;4993532;28;20042;-78
2021/05/02 02:00:50;;;;;;;30.17;19.75;;;6.80;99.90;;;;;;4993330;28;20557;-79
2021/05/02 02:03:18;;;;;;;27.58;20.17;;;6.80;99.90;;;;;;4999329;28;20553;-80
2021/05/02 02:05:46;;;;;;;26.52;19.60;;;6.80;99.90;;;;;;4998102;28;20050;-79
2021/05/02 02:08:13;;;;;;;26.60;18.83;;;6.80;99.90;;;;;;5000567;28;20084;-79
2021/05/02 02:10:40;;;;;;;26.75;18.20;;;6.80;99.90;;;;;;5002522;28;20082;-79
2021/05/02 02:13:11;;;;;;;26.02;18.27;;;6.90;99.90;;;;;;5002726;28;20550;-79
2021/05/02 02:15:37;;;;;;;28.10;19.08;;;6.90;99.90;;;;;;5001634;28;20110;-78
2021/05/02 02:18:05;;;;;;;27.58;18.65;;;7.00;99.90;;;;;;4999683;28;20108;-80
2021/05/02 02:20:37;;;;;;;25.05;18.65;;;7.00;99.90;;;;;;5002889;28;20565;-79
2021/05/02 02:23:08;;;;;;;27.42;18.80;;;7.00;99.90;;;;;;5002126;28;20056;-80
2021/05/02 02:25:41;;;;;;;29.08;19.23;;;7.00;99.90;;;;;;4993192;28;20129;-78
2021/05/02 02:28:12;;;;;;;27.48;18.30;;;7.00;99.90;;;;;;5009721;23;20086;-79
2021/05/02 02:30:41;;;;;;;28.63;19.13;;;7.10;99.90;;;;;;4988027;28;20082;-79
2021/05/02 02:33:08;;;;;;;26.50;19.70;;;7.10;99.90;;;;;;4989442;28;20046;-79
2021/05/02 02:35:40;;;;;;;26.33;19.00;;;7.10;99.90;;;;;;4979611;28;20522;-79
2021/05/02 02:38:08;;;;;;;33.65;20.63;;;7.10;99.90;;;;;;4978620;28;20078;-79
2021/05/02 02:40:37;;;;;;;27.60;19.98;;;7.00;99.90;;;;;;4979242;28;20138;-79
2021/05/02 02:43:04;;;;;;;26.88;19.17;;;7.00;99.90;;;;;;4978974;28;20055;-79
2021/05/02 02:45:34;;;;;;;27.88;19.40;;;7.00;99.90;;;;;;4981309;28;20074;-78
2021/05/02 02:48:04;;;;;;;27.75;19.58;;;7.10;99.90;;;;;;4981021;28;20093;-78
2021/05/02 02:50:31;;;;;;;27.35;19.45;;;7.10;99.90;;;;;;4978102;28;20515;-78
2021/05/02 02:53:02;;;;;;;30.00;19.75;;;7.10;99.90;;;;;;4987044;28;20085;-79
2021/05/02 02:55:31;;;;;;;28.65;20.00;;;7.10;99.90;;;;;;4984306;28;20106;-79
2021/05/02 02:58:01;;;;;;;30.13;20.20;;;7.20;99.90;;;;;;4980249;28;20047;-79
2021/05/02 03:00:29;;;;;;;31.55;20.60;;;7.20;99.90;;;;;;4980255;28;20086;-79
2021/05/02 03:03:03;;;;;;;32.17;22.00;;;7.20;99.90;;;;;;4982960;28;20074;-79
2021/05/02 03:05:32;;;;;;;30.75;20.35;;;7.20;99.90;;;;;;4983050;28;20054;-79
2021/05/02 03:08:00;;;;;;;30.75;20.67;;;7.20;99.90;;;;;;4984776;28;20074;-80
2021/05/02 03:10:28;;;;;;;31.33;22.67;;;7.20;99.90;;;;;;4988805;28;20078;-80
2021/05/02 03:12:55;;;;;;;28.42;21.77;;;7.30;99.90;;;;;;4988152;28;20059;-79
2021/05/02 03:15:23;;;;;;;28.83;20.83;;;7.40;99.90;;;;;;4986420;28;20307;-79
2021/05/02 03:18:02;;;;;;;31.85;22.27;;;7.40;99.90;;;;;;4982926;28;20055;-78
2021/05/02 03:20:32;;;;;;;29.17;20.88;;;7.40;99.90;;;;;;4979634;28;20051;-78
2021/05/02 03:23:05;;;;;;;32.53;21.90;;;7.40;99.90;;;;;;4975817;28;20574;-77
2021/05/02 03:25:35;;;;;;;31.75;22.13;;;7.40;99.90;;;;;;4975723;28;20065;-78
2021/05/02 03:28:05;;;;;;;32.15;22.20;;;7.50;99.90;;;;;;4975992;28;20050;-78
2021/05/02 03:30:32;;;;;;;36.00;22.83;;;7.50;99.90;;;;;;4977428;28;20055;-78
2021/05/02 03:33:03;;;;;;;38.90;23.27;;;7.50;99.90;;;;;;4978846;28;20054;-78
2021/05/02 03:35:33;;;;;;;36.10;22.70;;;7.60;99.90;;;;;;4982252;28;20110;-79
2021/05/02 03:38:10;;;;;;;29.00;21.80;;;7.50;99.90;;;;;;4980029;28;20082;-78
2021/05/02 03:40:37;;;;;;;36.13;22.80;;;7.60;99.90;;;;;;4978250;28;20396;-78
2021/05/02 03:43:05;;;;;;;35.10;22.52;;;7.60;99.90;;;;;;4976007;28;20197;-77
2021/05/02 03:45:31;;;;;;;33.42;21.80;;;7.50;99.90;;;;;;4974329;28;20166;-77
2021/05/02 03:47:58;;;;;;;37.30;25.08;;;7.60;99.90;;;;;;4974179;28;20129;-77
2021/05/02 03:50:25;;;;;;;29.95;22.38;;;7.60;99.90;;;;;;4975107;28;20133;-77
2021/05/02 03:52:51;;;;;;;34.75;23.42;;;7.70;99.90;;;;;;4975258;28;20145;-76
2021/05/02 03:55:18;;;;;;;30.88;22.02;;;7.60;99.90;;;;;;4974395;28;20181;-76
2021/05/02 03:57:44;;;;;;;30.90;23.05;;;7.60;99.90;;;;;;4975533;28;20097;-77
2021/05/02 04:00:12;;;;;;;34.75;23.08;;;7.70;99.90;;;;;;4978255;28;20138;-78
2021/05/02 04:02:38;;;;;;;33.60;22.08;;;7.70;99.90;;;;;;4977985;28;20133;-77
2021/05/02 04:05:07;;;;;;;34.45;22.52;;;7.70;99.90;;;;;;4977048;28;20130;-77
2021/05/02 04:07:33;;;;;;;32.45;21.63;;;7.70;99.90;;;;;;4975559;28;20054;-77
2021/05/02 04:09:59;;;;;;;29.80;21.52;;;7.70;99.90;;;;;;4979837;28;20514;-78
2021/05/02 04:12:26;;;;;;;32.90;22.15;;;7.70;99.90;;;;;;4980884;28;20194;-77
2021/05/02 04:14:52;;;;;;;31.30;21.85;;;7.60;99.90;;;;;;4978718;28;20055;-77
2021/05/02 04:17:18;;;;;;;32.58;22.15;;;7.60;99.90;;;;;;4979405;28;20146;-78
2021/05/02 04:19:46;;;;;;;33.90;21.88;;;7.50;99.90;;;;;;4980678;28;20107;-77
2021/05/02 04:22:15;;;;;;;34.80;22.08;;;7.50;99.90;;;;;;4978710;28;20090;-77
2021/05/02 04:24:42;;;;;;;31.38;22.30;;;7.50;99.90;;;;;;4981423;28;20093;-77
2021/05/02 04:27:09;;;;;;;32.03;21.83;;;7.50;99.90;;;;;;4981066;28;20524;-78
2021/05/02 04:29:37;;;;;;;30.60;21.05;;;7.50;99.90;;;;;;4990500;28;20074;-77
2021/05/02 04:32:04;;;;;;;30.60;21.15;;;7.50;99.90;;;;;;4994333;28;20101;-78
2021/05/02 04:34:30;;;;;;;29.27;20.75;;;7.50;99.90;;;;;;4995872;28;20051;-80
2021/05/02 04:36:58;;;;;;;32.38;21.13;;;7.60;99.90;;;;;;5000717;28;20031;-78
2021/05/02 04:39:26;;;;;;;30.02;20.30;;;7.60;99.90;;;;;;5001491;28;20035;-79
2021/05/02 04:41:53;;;;;;;28.70;20.58;;;7.60;99.90;;;;;;5000979;28;20066;-78
2021/05/02 04:44:20;;;;;;;30.27;19.15;;;7.60;99.90;;;;;;4991465;28;20074;-78
2021/05/02 04:46:46;;;;;;;27.23;19.90;;;7.70;99.90;;;;;;4980126;28;20137;-77
2021/05/02 04:49:13;;;;;;;28.45;19.70;;;7.70;99.90;;;;;;4978331;28;20500;-78
2021/05/02 04:51:40;;;;;;;27.80;19.02;;;7.70;99.90;;;;;;4977971;28;20082;-76
2021/05/02 04:54:08;;;;;;;31.08;19.70;;;7.70;99.90;;;;;;4977096;28;20050;-75
2021/05/02 04:56:35;;;;;;;27.90;19.40;;;7.60;99.90;;;;;;4977494;28;20062;-78
2021/05/02 04:59:01;;;;;;;27.10;19.20;;;7.70;99.90;;;;;;4979557;28;20046;-78
2021/05/02 05:01:28;;;;;;;26.42;18.10;;;7.60;99.90;;;;;;4983855;28;20118;-78
2021/05/02 05:03:55;;;;;;;28.15;18.05;;;7.60;99.90;;;;;;4986559;28;20086;-78
2021/05/02 05:06:22;;;;;;;25.67;17.23;;;7.60;99.90;;;;;;4984276;28;20059;-78
2021/05/02 05:08:48;;;;;;;25.23;16.50;;;7.70;99.90;;;;;;4982555;28;20081;-78
2021/05/02 05:11:15;;;;;;;27.50;15.00;;;7.70;99.90;;;;;;4983847;28;20213;-79
2021/05/02 05:13:42;;;;;;;22.73;15.13;;;7.70;99.90;;;;;;4984329;28;20118;-79
2021/05/02 05:16:08;;;;;;;21.02;14.13;;;7.70;99.90;;;;;;4981268;28;20047;-77
2021/05/02 05:18:35;;;;;;;23.35;14.80;;;7.60;99.90;;;;;;4980904;28;20050;-78
2021/05/02 05:21:01;;;;;;;23.83;13.98;;;7.60;99.90;;;;;;4982188;28;20086;-78
2021/05/02 05:23:28;;;;;;;21.20;13.50;;;7.60;99.90;;;;;;4979750;28;20463;-80
2021/05/02 05:25:54;;;;;;;21.80;13.20;;;7.70;99.90;;;;;;4978022;28;20058;-77
2021/05/02 05:28:23;;;;;;;18.67;13.13;;;7.70;99.90;;;;;;4977330;28;20057;-78
2021/05/02 05:30:50;;;;;;;17.98;12.25;;;7.70;99.90;;;;;;4976762;28;20133;-77
2021/05/02 05:33:17;;;;;;;20.77;12.25;;;7.80;99.90;;;;;;4976170;28;20089;-77
2021/05/02 05:35:43;;;;;;;16.85;11.57;;;7.80;99.90;;;;;;4979193;28;20110;-78
2021/05/02 05:38:10;;;;;;;20.60;11.43;;;7.80;99.90;;;;;;4981494;28;20137;-78
2021/05/02 05:40:36;;;;;;;16.30;11.52;;;7.80;99.90;;;;;;4981612;28;20137;-77
2021/05/02 05:43:03;;;;;;;17.05;11.52;;;7.90;99.90;;;;;;4980567;28;20081;-78
2021/05/02 05:45:30;;;;;;;16.10;11.10;;;7.90;99.90;;;;;;4980771;28;20055;-79
2021/05/02 05:47:57;;;;;;;17.80;11.98;;;7.90;99.90;;;;;;4983899;28;20131;-79
2021/05/02 05:50:25;;;;;;;15.45;10.73;;;7.90;99.90;;;;;;4981576;28;20078;-80
2021/05/02 05:52:53;;;;;;;17.38;11.13;;;7.90;99.90;;;;;;4983039;28;20594;-79
2021/05/02 05:55:20;;;;;;;17.10;11.48;;;7.90;99.90;;;;;;4981984;28;20051;-78
2021/05/02 05:57:48;;;;;;;15.27;10.98;;;7.90;99.90;;;;;;4983411;28;20051;-79
2021/05/02 06:00:16;;;;;;;15.77;10.90;;;7.80;99.90;;;;;;4984872;28;20074;-79
2021/05/02 06:02:42;;;;;;;17.17;10.32;;;7.70;99.90;;;;;;4988387;28;20555;-78
2021/05/02 06:05:11;;;;;;;20.08;10.70;;;7.70;99.90;;;;;;4988199;28;20055;-78
2021/05/02 06:07:37;;;;;;;19.27;10.68;;;7.60;99.90;;;;;;4988070;28;20054;-79
2021/05/02 06:10:05;;;;;;;15.70;10.25;;;7.70;99.90;;;;;;4988506;28;20133;-79
2021/05/02 06:12:31;;;;;;;13.30;9.95;;;7.70;99.90;;;;;;4981334;28;20089;-79
2021/05/02 06:14:58;;;;;;;14.90;10.40;;;7.70;99.90;;;;;;4986796;28;20081;-79
2021/05/02 06:17:24;;;;;;;17.67;11.05;;;7.80;99.90;;;;;;4984552;28;20119;-78
2021/05/02 06:19:50;;;;;;;17.17;11.50;;;7.80;99.90;;;;;;4987705;28;20054;-79
2021/05/02 06:22:17;;;;;;;17.25;10.98;;;7.80;99.90;;;;;;4987476;28;20081;-79
2021/05/02 06:24:44;;;;;;;16.42;10.48;;;7.70;99.90;;;;;;4984102;28;20133;-78
2021/05/02 06:27:10;;;;;;;17.33;10.23;;;7.80;99.90;;;;;;4980452;28;20074;-78
2021/05/02 06:29:36;;;;;;;17.05;9.68;;;7.90;99.90;;;;;;4980857;28;20138;-77
2021/05/02 06:32:03;;;;;;;14.23;9.38;;;7.80;99.90;;;;;;4982821;28;20106;-78
2021/05/02 06:34:30;;;;;;;22.67;10.48;;;7.80;99.90;;;;;;4983808;28;20550;-78
2021/05/02 06:36:58;;;;;;;15.88;9.75;;;7.90;99.90;;;;;;4982111;28;20594;-78
2021/05/02 06:39:26;;;;;;;16.23;9.80;;;7.90;99.90;;;;;;4977745;28;20193;-77
2021/05/02 06:41:52;;;;;;;15.73;9.70;;;8.00;99.90;;;;;;4977059;28;20475;-77
2021/05/02 06:44:19;;;;;;;14.75;8.75;;;8.10;99.90;;;;;;4987377;28;20138;-78
2021/05/02 06:46:45;;;;;;;14.73;8.40;;;8.20;99.90;;;;;;4983661;28;20137;-78
2021/05/02 06:49:12;;;;;;;13.63;9.10;;;8.20;99.90;;;;;;4988059;28;20106;-79
2021/05/02 06:51:39;;;;;;;12.57;7.57;;;8.30;99.90;;;;;;4992967;28;20045;-78
2021/05/02 06:54:06;;;;;;;12.55;7.43;;;8.50;99.90;;;;;;4992834;28;20067;-78
2021/05/02 06:56:35;;;;;;;13.25;7.35;;;8.60;99.90;;;;;;4992383;28;20105;-79
2021/05/02 06:59:01;;;;;;;15.45;7.53;;;8.90;99.90;;;;;;4993332;28;20042;-79
2021/05/02 07:01:28;;;;;;;12.95;7.35;;;9.20;99.90;;;;;;4993330;28;20055;-79
2021/05/02 07:03:54;;;;;;;10.95;7.72;;;9.40;99.90;;;;;;4990211;28;20070;-78
2021/05/02 07:06:21;;;;;;;13.10;6.90;;;9.50;99.90;;;;;;4985268;28;20130;-79
2021/05/02 07:08:47;;;;;;;12.48;7.15;;;9.80;99.90;;;;;;4986705;28;20043;-79
2021/05/02 07:11:15;;;;;;;15.27;7.10;;;9.90;99.90;;;;;;4983329;28;20066;-79
2021/05/02 07:13:42;;;;;;;10.50;6.30;;;10.30;99.90;;;;;;4987424;28;20050;-79
2021/05/02 07:16:10;;;;;;;10.27;6.38;;;10.80;99.90;;;;;;4985827;28;20047;-79
2021/05/02 07:18:39;;;;;;;10.55;6.47;;;11.30;99.90;;;;;;4979013;28;20137;-79
2021/05/02 07:21:06;;;;;;;11.10;6.35;;;11.50;99.90;;;;;;4977236;28;20093;-79
2021/05/02 07:23:33;;;;;;;10.40;5.80;;;11.70;99.90;;;;;;4978560;28;20082;-79
2021/05/02 07:25:59;;;;;;;13.20;6.57;;;11.70;99.90;;;;;;4978448;28;20050;-79
2021/05/02 07:28:26;;;;;;;8.50;5.82;;;11.90;99.90;;;;;;4978465;28;20114;-79
2021/05/02 07:30:53;;;;;;;11.35;6.15;;;12.10;99.90;;;;;;4979935;28;20072;-80
2021/05/02 07:33:22;;;;;;;9.27;5.82;;;12.10;99.90;;;;;;4980814;28;20054;-78
2021/05/02 07:35:49;;;;;;;9.65;5.18;;;12.10;99.90;;;;;;4981089;28;20054;-78
2021/05/02 07:38:16;;;;;;;10.38;4.97;;;12.10;99.90;;;;;;4979820;28;20086;-78
2021/05/02 07:40:42;;;;;;;7.75;4.65;;;11.90;99.90;;;;;;4980109;28;20097;-80
2021/05/02 07:43:08;;;;;;;10.00;5.10;;;12.00;99.90;;;;;;4986814;28;20087;-79
2021/05/02 07:45:35;;;;;;;7.75;5.40;;;12.00;99.90;;;;;;4989454;28;20082;-79
2021/05/02 07:48:02;;;;;;;9.48;4.95;;;12.00;99.90;;;;;;4986395;28;20086;-79
2021/05/02 07:50:29;;;;;;;8.82;5.00;;;12.00;99.90;;;;;;4990910;28;20119;-79
2021/05/02 07:52:55;;;;;;;8.20;5.05;;;11.80;99.90;;;;;;4991355;28;20047;-78
2021/05/02 07:55:21;;;;;;;9.82;4.90;;;11.50;99.90;;;;;;4991196;28;20054;-79
2021/05/02 07:57:48;;;;;;;12.45;5.07;;;11.30;99.90;;;;;;4990005;28;20075;-79
2021/05/02 08:00:18;;;;;;;8.18;4.82;;;10.90;99.90;;;;;;4984424;28;20514;-79
2021/05/02 08:02:45;;;;;;;7.20;5.32;;;10.60;99.90;;;;;;4987033;28;20078;-78
2021/05/02 08:05:13;;;;;;;10.02;5.50;;;10.60;99.90;;;;;;4990998;28;20059;-79
2021/05/02 08:07:40;;;;;;;12.63;5.03;;;10.90;99.90;;;;;;4986551;28;20055;-78
2021/05/02 08:10:07;;;;;;;10.38;5.47;;;11.50;99.90;;;;;;4984023;28;20137;-79
2021/05/02 08:12:34;;;;;;;8.10;4.93;;;11.60;99.90;;;;;;4987471;28;20069;-79
2021/05/02 08:15:01;;;;;;;7.32;4.10;;;11.40;99.90;;;;;;4999184;28;20078;-78
2021/05/02 08:17:27;;;;;;;5.93;4.20;;;11.20;99.90;;;;;;5001501;28;20086;-79
2021/05/02 08:19:54;;;;;;;7.75;4.38;;;11.10;99.90;;;;;;5003093;28;20124;-80
2021/05/02 08:22:22;;;;;;;5.90;3.67;;;11.00;99.90;;;;;;5005127;28;20169;-81
2021/05/02 08:24:49;;;;;;;7.55;4.30;;;11.60;99.90;;;;;;5001569;28;20113;-81
2021/05/02 08:30:00;;;;;;;7.28;4.40;;;12.80;99.90;;;;;;5012463;28;20049;-78
2021/05/02 08:32:27;;;;;;;10.23;4.78;;;13.00;99.90;;;;;;5014356;28;20061;-78
2021/05/02 08:34:54;;;;;;;7.25;4.57;;;13.00;99.90;;;;;;5017496;28;20489;-77
2021/05/02 08:37:22;;;;;;;8.48;5.32;;;12.60;99.90;;;;;;5012861;28;20521;-76
2021/05/02 08:39:49;;;;;;;9.13;5.70;;;12.40;99.90;;;;;;5013976;28;20115;-78
2021/05/02 08:42:15;;;;;;;12.05;6.03;;;12.00;99.90;;;;;;5014290;28;20061;-76
2021/05/02 08:44:50;;;;;;;9.55;5.20;;;11.80;99.90;;;;;;5014614;28;20060;-77
2021/05/02 08:47:17;;;;;;;9.52;4.72;;;12.10;99.90;;;;;;5014981;28;20058;-77
2021/05/02 08:49:45;;;;;;;8.88;4.63;;;12.80;99.90;;;;;;5014653;28;20490;-77
2021/05/02 08:52:11;;;;;;;6.50;4.13;;;13.00;99.90;;;;;;5016743;28;20390;-77
2021/05/02 08:54:39;;;;;;;9.77;4.38;;;12.90;99.90;;;;;;5015165;28;20074;-79
2021/05/02 08:57:06;;;;;;;7.45;4.22;;;12.70;99.90;;;;;;5014386;28;20058;-79
2021/05/02 08:59:32;;;;;;;7.13;4.90;;;12.50;99.90;;;;;;5013526;28;20049;-79
2021/05/02 09:01:59;;;;;;;8.00;4.88;;;12.90;99.90;;;;;;5014837;28;20049;-79
2021/05/02 09:04:26;;;;;;;6.88;5.25;;;13.50;99.90;;;;;;5013603;28;20215;-78
2021/05/02 09:06:52;;;;;;;6.90;5.28;;;14.10;99.90;;;;;;5013381;28;20088;-78
2021/05/02 09:09:19;;;;;;;8.02;5.22;;;14.50;99.90;;;;;;5006823;28;20063;-78
2021/05/02 09:11:49;;;;;;;8.23;5.47;;;14.40;99.90;;;;;;5013855;28;20132;-79
2021/05/02 09:14:29;;;;;;;8.07;4.75;;;13.90;99.90;;;;;;4994300;28;20061;-79
2021/05/02 09:16:57;;;;;;;6.95;5.32;;;13.20;99.90;;;;;;4993567;28;20054;-79
2021/05/02 09:19:25;;;;;;;6.38;4.78;;;12.70;99.90;;;;;;4993026;28;20529;-78
2021/05/02 09:21:52;;;;;;;8.88;5.20;;;12.60;99.90;;;;;;4993596;28;20053;-78
2021/05/02 09:24:24;;;;;;;10.13;4.78;;;12.50;99.90;;;;;;4993580;28;20050;-77
2021/05/02 09:27:08;;;;;;;6.50;5.47;;;12.40;99.90;;;;;;4993840;28;20460;-80
2021/05/02 09:29:36;;;;;;;7.93;5.20;;;12.80;99.90;;;;;;4993653;28;20129;-79
2021/05/02 09:32:04;;;;;;;8.10;4.55;;;13.50;99.90;;;;;;4994116;28;20521;-79
2021/05/02 09:34:31;;;;;;;10.32;5.95;;;14.10;99.90;;;;;;4995373;28;20046;-80
2021/05/02 09:37:02;;;;;;;9.32;4.70;;;14.50;99.90;;;;;;4994102;28;20163;-79
2021/05/02 09:39:39;;;;;;;7.28;4.53;;;14.40;99.90;;;;;;4994579;28;20054;-79
2021/05/02 09:42:08;;;;;;;7.25;4.93;;;14.20;99.90;;;;;;4995281;28;20133;-79
2021/05/02 09:44:39;;;;;;;7.40;4.88;;;13.70;99.90;;;;;;4996189;28;20053;-76
2021/05/02 09:47:26;;;;;;;9.00;5.38;;;13.10;99.90;;;;;;4997139;28;20050;-80
2021/05/02 09:50:08;;;;;;;7.45;5.25;;;12.60;99.90;;;;;;4996664;28;20130;-78
2021/05/02 09:52:46;;;;;;;8.63;5.10;;;12.50;99.90;;;;;;4996796;28;20057;-77
2021/05/02 09:55:26;;;;;;;5.85;4.55;;;12.50;99.90;;;;;;4997273;28;20105;-79
2021/05/02 09:57:54;;;;;;;9.88;5.05;;;12.60;99.90;;;;;;4997567;28;20082;-78
2021/05/02 10:00:35;;;;;;;12.88;5.22;;;12.50;99.90;;;;;;4998265;28;20488;-78
2021/05/02 10:03:06;;;;;;;8.00;5.15;;;12.50;99.90;;;;;;5004128;28;20486;-78
2021/05/02 10:05:32;;;;;;;7.85;4.68;;;12.60;99.90;;;;;;5003188;28;20110;-78
2021/05/02 10:07:59;;;;;;;9.23;5.07;;;12.80;99.90;;;;;;5001926;28;20081;-79
2021/05/02 10:10:27;;;;;;;9.65;4.60;;;13.10;99.90;;;;;;4995535;28;20126;-77
2021/05/02 10:12:55;;;;;;;5.88;4.10;;;13.00;99.90;;;;;;4994532;28;20536;-79
2021/05/02 10:15:25;;;;;;;7.43;4.15;;;12.80;99.90;;;;;;4994260;28;20349;-78
2021/05/02 10:17:52;;;;;;;7.65;4.20;;;12.60;99.90;;;;;;4994162;28;20072;-79
2021/05/02 10:20:20;;;;;;;6.22;4.00;;;12.50;99.90;;;;;;4994088;28;20557;-78
2021/05/02 10:22:47;;;;;;;6.88;4.30;;;12.60;99.90;;;;;;4995142;28;20063;-78
2021/05/02 10:25:15;;;;;;;8.43;4.30;;;12.70;99.90;;;;;;4993609;28;20137;-78
2021/05/02 10:27:47;;;;;;;8.77;4.55;;;12.90;99.90;;;;;;4993318;28;20056;-79
2021/05/02 10:30:23;;;;;;;5.97;4.00;;;13.10;99.90;;;;;;4993181;28;20046;-78
2021/05/02 10:32:51;;;;;;;6.40;4.18;;;13.00;99.90;;;;;;4993843;28;20500;-80
2021/05/02 10:35:18;;;;;;;5.53;4.20;;;12.90;99.90;;;;;;4993565;28;20061;-81
2021/05/02 10:37:53;;;;;;;6.13;4.40;;;12.80;99.90;;;;;;4992201;28;20138;-78
2021/05/02 10:40:31;;;;;;;6.57;4.38;;;12.80;99.90;;;;;;4993520;28;20074;-81
2021/05/02 10:43:02;;;;;;;6.75;4.00;;;12.90;99.90;;;;;;4992948;28;20050;-78
2021/05/02 10:45:47;;;;;;;7.32;4.65;;;12.90;99.90;;;;;;4996091;28;20442;-78
2021/05/02 10:48:36;;;;;;;6.60;3.95;;;13.00;99.90;;;;;;4992776;28;20069;-79
2021/05/02 10:51:04;;;;;;;9.50;4.63;;;12.90;99.90;;;;;;4994393;28;20086;-79
2021/05/02 10:53:30;;;;;;;6.88;5.10;;;12.80;99.90;;;;;;5006427;28;20054;-79
2021/05/02 10:55:59;;;;;;;6.75;4.53;;;12.50;99.90;;;;;;5031441;28;20132;-81
2021/05/02 10:58:27;;;;;;;8.93;5.07;;;12.40;99.90;;;;;;5030070;28;20053;-76
2021/05/02 11:00:57;;;;;;;7.05;4.30;;;12.30;99.90;;;;;;5030656;28;20159;-78
2021/05/02 11:04:01;;;;;;;6.63;4.97;;;12.30;99.90;;;;;;5030284;28;20053;-76
2021/05/02 11:06:53;;;;;;;8.75;4.70;;;12.30;99.90;;;;;;5028513;28;20073;-78
2021/05/02 11:09:25;;;;;;;6.28;4.65;;;12.40;99.90;;;;;;5034844;28;20500;-78
2021/05/02 11:11:56;;;;;;;6.32;5.05;;;12.50;99.90;;;;;;5030903;28;20140;-78
2021/05/02 11:14:33;;;;;;;6.22;4.90;;;12.70;99.90;;;;;;5030574;28;20056;-79
2021/05/02 11:17:20;;;;;;;7.47;4.53;;;12.90;99.90;;;;;;5028191;28;20544;-78
2021/05/02 11:19:47;;;;;;;6.53;4.65;;;12.90;99.90;;;;;;5032150;28;20049;-79
2021/05/02 11:22:15;;;;;;;8.95;4.68;;;12.70;99.90;;;;;;5035341;28;20061;-79
2021/05/02 11:24:58;;;;;;;7.32;4.80;;;12.60;99.90;;;;;;5035431;28;20140;-79
2021/05/02 11:27:49;;;;;;;8.30;5.10;;;12.50;99.90;;;;;;5035637;28;20045;-78
2021/05/02 11:30:23;;;;;;;7.10;4.43;;;12.60;99.90;;;;;;5037111;28;20484;-78
2021/05/02 11:32:51;;;;;;;6.43;3.50;;;12.70;99.90;;;;;;5036489;28;20379;-79
2021/05/02 11:35:20;;;;;;;8.27;3.70;;;12.90;97.90;;;;;;5036798;28;20053;-80
2021/05/02 11:37:53;;;;;;;9.82;4.10;;;12.90;98.20;;;;;;5036484;28;20053;-80
2021/05/02 11:40:38;;;;;;;;;;;13.10;98.20;;;;;;5037241;28;20122;-78
2021/05/02 11:43:07;;;;;;;7.07;3.72;;;13.20;98.40;;;;;;5035932;28;19968;-78
2021/05/02 11:45:46;;;;;;;5.35;3.72;;;13.00;97.70;;;;;;5029067;28;20060;-77
2021/05/02 11:48:26;;;;;;;11.13;3.80;;;13.00;98.50;;;;;;5016618;28;20084;-78
2021/05/02 11:50:57;;;;;;;7.00;4.28;;;12.90;99.90;;;;;;5027535;28;20045;-77
2021/05/02 11:53:43;;;;;;;6.70;4.30;;;12.90;99.90;;;;;;5018245;28;20453;-78
2021/05/02 11:56:11;;;;;;;4.65;3.47;;;12.90;99.90;;;;;;5017426;28;20108;-79
2021/05/02 11:58:38;;;;;;;5.60;3.80;;;13.00;99.90;;;;;;5019093;28;20129;-77
2021/05/02 12:01:05;;;;;;;6.57;4.35;;;13.00;99.90;;;;;;5018045;28;20084;-78
2021/05/02 12:03:37;;;;;;;4.97;3.80;;;13.10;99.90;;;;;;5034765;28;20049;-77
2021/05/02 12:06:05;;;;;;;6.03;3.92;;;13.20;99.70;;;;;;5027238;28;20210;-78
2021/05/02 12:08:32;;;;;;;6.07;3.80;;;13.30;98.70;;;;;;5024639;28;20137;-79
2021/05/02 12:11:00;;;;;;;6.20;3.72;;;13.40;98.40;;;;;;5024674;28;20132;-80
2021/05/02 12:13:32;;;;;;;6.25;3.60;;;13.50;97.80;;;;;;5025999;28;20139;-79
2021/05/02 12:16:08;;;;;;;4.53;3.63;;;13.60;97.30;;;;;;5017059;28;20128;-78
2021/05/02 12:18:44;;;;;;;4.18;3.20;;;13.70;96.60;;;;;;5016033;28;20053;-78
2021/05/02 12:21:14;;;;;;;6.75;3.45;;;13.50;96.70;;;;;;5016592;28;20085;-78
2021/05/02 12:23:42;;;;;;;6.95;3.85;;;13.50;96.50;;;;;;5016856;28;20050;-81
2021/05/02 12:26:09;;;;;;;7.80;4.00;;;13.40;96.80;;;;;;5019904;28;20049;-79
2021/05/02 12:28:36;;;;;;;11.25;3.80;;;13.30;97.50;;;;;;5035566;28;20087;-78
2021/05/02 12:31:04;;;;;;;8.07;3.50;;;13.20;96.90;;;;;;5035144;28;20140;-79
2021/05/02 12:33:31;;;;;;;6.15;3.35;;;13.30;97.40;;;;;;5036547;28;20057;-79
2021/05/02 12:35:58;;;;;;;5.97;3.67;;;13.30;95.90;;;;;;5036023;28;20458;-79
2021/05/02 12:38:26;;;;;;;6.50;3.70;;;13.30;96.00;;;;;;5034816;28;20132;-79
2021/05/02 12:40:53;;;;;;;4.38;3.50;;;13.20;95.90;;;;;;5034458;28;20185;-77
2021/05/02 12:43:23;;;;;;;6.32;3.40;;;13.00;96.40;;;;;;5034714;28;20062;-78
2021/05/02 12:45:50;;;;;;;7.45;4.10;;;12.80;96.70;;;;;;5035850;28;20110;-78
2021/05/02 12:48:24;;;;;;;5.35;3.80;;;12.70;97.40;;;;;;5035624;28;20049;-78
2021/05/02 12:50:51;;;;;;;8.70;3.85;;;12.70;97.70;;;;;;5029201;28;20046;-79
2021/05/02 12:53:19;;;;;;;8.38;3.80;;;12.80;98.20;;;;;;5034135;28;20091;-80